Eagle Pass, TX (78852)

6:17 AM CDT en Octubre 24, 2014 (GMT -0500)
Seco Mines Area | Change Station
CLOSE
Current Station
Estación meteorológica personal
Location: Eagle Pass, TX
Altura: 741 ft
Estaciones meteorológicas cercanas

Alt 741 ft 28.74 °N, 100.49 °W | Updated 17 minutes ago

Despejado
Despejado
64.5 ° F
Sensación térmica 64.5 ° F
N
0.0
Viento Variable Viento desde ENE
Gusts 0.0 mph

Hoy
Alta -- | Baja -- ° F
--% Posibilidad de precipitaciones
Ayer
Alta -- | Baja -- ° F
Precip. -- pul
7:48 AM 7:03 PM
Luna nueva, 0% visible
Presión 30.11 pul
Visibilidad 10.0 Millas
Nubes Despejado
Punto de rocío 61 ° F
Humedad 89%
Precipitaciones 0.00 pul
Espesor de la nieve No disponible.
UV 0 de una escala de 12
Polen 5.70 de una escala de 12
Calidad del aire No disponible.
Flu Activity Sporadic
METAR KFTN 241150Z AUTO 14006KT 10SM CLR 18/15 A3011 RMK AO1

More Conditions Fewer Conditions

Presión 30.11 pul
Visibilidad 10.0 Millas
Nubes Despejado
Punto de rocío 61 ° F
Humedad 89%
Precipitaciones 0.00 pul
Espesor de la nieve No disponible.
UV 0 de una escala de 12
Polen 5.70 de una escala de 12
Calidad del aire No disponible.
Flu Activity Sporadic
METAR KFTN 241150Z AUTO 14006KT 10SM CLR 18/15 A3011 RMK AO1

More Conditions Fewer Conditions

10-Day Weather Forecast

Almanac

Astronomía

Oct. 24, 2014 Salida Puesta
Hora real 7:48 AM CDT 7:03 PM CDT
Crepúsculo civil 7:24 AM CDT 7:27 PM CDT
Crepúsculo náutico 6:56 AM CDT 7:54 PM CDT
Crepúsculo astronómico 6:29 AM CDT 8:22 PM CDT
Luna 8:26 AM CDT 7:48 PM CDT
Horas de luz 12h 02m
Horas de luz
11h 14m
Tomorrow will be 1m 35s shorter.
Luna nueva, 0% of the Moon is Illuminated
Hoy
Luna nueva
Oct 30
Cuarto creciente
Nov 6
Luna llena
Nov 14
Cuarto menguante
Nov 22
Nueva

Extremos de hoy

Máximos del estado Bajos del estado

Community

WunderPhotos

Upload Photos

1,764,518 ¡fotos cargadas!

WunderBlogs® & News

Nearby

Grosos de nieve

Estación Profundido Altura
No tenemos constancia de nieve nueva.

Actividad de terremotos

Ciudad Distance Mag. Tiempo y dato
No hay informes recientes de la actividad sísmica.
Magnitud mínima muestra es 2,5.

Temperaturas de aguas costeras

Lugar Temperatura
Sin partes meteorológicos de las estaciones

Estaciones meteorológicas cercanas